Hazlerigg, United Kingdom
Current Conditions -  °F | °C
As of 3:50 PM on Thursday 30 Oct 2014 (Local Time) from EGNT Reporting Station
Few Clouds Few Clouds  
Wind Chill: 59°   Ceiling: Unl
Heat Index: 59°   Visibility: 6mi
Dew Point: 54°   Wind: 5mph
Humidity: 82%   Direction: 190°S
Pressure: 29.91"   Gusts: NA
Location:  55.04°N, 1.64°W
Report Text: EGNT 301550Z 19004KT 9999 FEW020 15/12 Q1013
Loading
Personal Weather Stations






























Interactive Weather Map
Tropical Storm Tracking
New forecast layout! Learn more

10-Day Weather Forecast

Advertisements
Track Severe Weather on mobile